createdAt,value
2023-04-18T00:01:55.788Z,2.63
2023-04-18T00:04:42.024Z,2.30
2023-04-18T00:07:28.398Z,2.53
2023-04-18T00:10:15.082Z,2.40
2023-04-18T00:13:03.969Z,2.30
2023-04-18T00:15:50.373Z,2.37
2023-04-18T00:18:37.106Z,2.57
2023-04-18T00:21:25.647Z,2.63
2023-04-18T00:24:12.447Z,2.77
2023-04-18T00:26:58.947Z,4.23
2023-04-18T00:29:47.110Z,3.33
2023-04-18T00:32:33.341Z,4.30
2023-04-18T00:35:20.244Z,4.30
2023-04-18T00:38:06.523Z,4.00
2023-04-18T00:40:52.748Z,2.97
2023-04-18T00:43:39.404Z,3.10
2023-04-18T00:46:26.846Z,2.50
2023-04-18T00:49:13.725Z,2.23
2023-04-18T00:52:00.443Z,2.70
2023-04-18T00:54:47.382Z,2.53
2023-04-18T00:57:34.391Z,2.33
2023-04-18T01:00:21.039Z,2.33
2023-04-18T01:03:10.869Z,1.90
2023-04-18T01:05:58.038Z,2.33
2023-04-18T01:08:45.729Z,2.83
2023-04-18T01:11:32.449Z,2.60
2023-04-18T01:14:20.389Z,2.47
2023-04-18T01:17:08.084Z,2.90
2023-04-18T01:19:56.775Z,2.30
2023-04-18T01:22:43.278Z,2.53
2023-04-18T01:25:30.809Z,2.67
2023-04-18T01:28:17.340Z,2.80
2023-04-18T01:31:03.646Z,2.70
2023-04-18T01:33:49.990Z,2.60
2023-04-18T01:36:36.638Z,2.60
2023-04-18T01:39:23.253Z,3.10
2023-04-18T01:42:10.980Z,2.77
2023-04-18T01:44:57.462Z,2.70
2023-04-18T01:47:44.405Z,3.70
2023-04-18T01:50:30.774Z,3.63
2023-04-18T01:53:17.653Z,3.97
2023-04-18T01:56:04.203Z,4.40
2023-04-18T01:58:51.856Z,4.13
2023-04-18T02:01:38.530Z,3.40
2023-04-18T02:04:25.178Z,5.30
2023-04-18T02:07:11.904Z,4.80
2023-04-18T02:09:58.315Z,4.57
2023-04-18T02:12:44.836Z,6.90
2023-04-18T02:15:32.493Z,4.90
2023-04-18T02:18:18.770Z,7.10
2023-04-18T02:21:05.540Z,4.77
2023-04-18T02:23:52.161Z,4.20
2023-04-18T02:26:38.368Z,4.57
2023-04-18T02:29:24.815Z,3.90
2023-04-18T02:32:12.549Z,4.40
2023-04-18T02:34:59.232Z,4.03
2023-04-18T02:37:45.621Z,3.87
2023-04-18T02:40:31.980Z,3.80
2023-04-18T02:43:18.317Z,4.73
2023-04-18T02:46:04.953Z,3.53
2023-04-18T02:48:52.841Z,3.73
2023-04-18T02:51:39.259Z,4.57
2023-04-18T02:54:25.828Z,4.83
2023-04-18T02:57:12.557Z,6.50
2023-04-18T02:59:58.617Z,6.67
2023-04-18T03:02:45.339Z,4.23
2023-04-18T03:05:33.530Z,4.47
2023-04-18T03:08:20.013Z,4.37
2023-04-18T03:11:06.291Z,5.37
2023-04-18T03:13:52.918Z,5.87
2023-04-18T03:16:39.323Z,5.80
2023-04-18T03:19:25.813Z,6.43
2023-04-18T03:22:14.256Z,7.53
2023-04-18T03:25:01.166Z,7.10
2023-04-18T03:27:47.373Z,4.93
2023-04-18T03:30:33.914Z,4.80
2023-04-18T03:33:20.106Z,4.90
2023-04-18T03:36:06.694Z,5.67
2023-04-18T03:38:54.847Z,4.93
2023-04-18T03:41:40.906Z,4.73
2023-04-18T03:44:27.668Z,3.70
2023-04-18T03:47:14.667Z,3.87
2023-04-18T03:50:01.071Z,4.40
2023-04-18T03:52:47.553Z,4.37
2023-04-18T03:55:35.594Z,9.87
2023-04-18T03:58:23.876Z,7.07
2023-04-18T04:01:10.320Z,6.17
2023-04-18T04:03:56.645Z,6.13
2023-04-18T04:06:43.107Z,6.00
2023-04-18T04:09:29.476Z,5.53
2023-04-18T04:12:18.864Z,4.77
2023-04-18T04:15:05.820Z,4.93
2023-04-18T04:17:52.245Z,5.40
2023-04-18T04:20:38.796Z,5.13
2023-04-18T04:23:25.695Z,5.17
2023-04-18T04:26:12.409Z,4.37
2023-04-18T04:29:01.212Z,4.53
2023-04-18T04:31:48.137Z,5.03
2023-04-18T04:34:35.844Z,4.80
2023-04-18T04:37:22.323Z,5.27
2023-04-18T04:40:09.315Z,6.57
2023-04-18T04:42:56.302Z,8.57
2023-04-18T04:45:44.720Z,6.67
2023-04-18T04:48:31.306Z,6.03
2023-04-18T04:51:17.807Z,9.50
2023-04-18T04:54:03.974Z,5.43
2023-04-18T04:56:51.209Z,4.50
2023-04-18T04:59:37.522Z,5.53
2023-04-18T05:02:25.596Z,5.57
2023-04-18T05:05:12.251Z,5.37
2023-04-18T05:07:59.012Z,5.00
2023-04-18T05:10:46.001Z,5.33
2023-04-18T05:13:32.714Z,6.53
2023-04-18T05:16:19.137Z,5.20
2023-04-18T05:19:06.940Z,5.93
2023-04-18T05:21:53.223Z,5.27
2023-04-18T05:24:40.662Z,4.97
2023-04-18T05:27:28.416Z,6.47
2023-04-18T05:30:15.140Z,6.23
2023-04-18T05:33:01.508Z,4.63
2023-04-18T05:35:49.312Z,5.07
2023-04-18T05:38:35.785Z,5.60
2023-04-18T05:41:23.044Z,5.10
2023-04-18T05:44:09.214Z,6.03
2023-04-18T05:46:55.795Z,6.07
2023-04-18T05:49:42.458Z,5.70
2023-04-18T05:52:30.423Z,4.80
2023-04-18T05:55:16.791Z,6.60
2023-04-18T05:58:03.539Z,5.30
2023-04-18T06:00:50.072Z,5.37
2023-04-18T06:03:37.088Z,4.50
2023-04-18T06:06:24.086Z,5.53
2023-04-18T06:09:12.068Z,5.27
2023-04-18T06:11:58.602Z,5.33
2023-04-18T06:14:44.913Z,5.13
2023-04-18T06:17:31.271Z,5.97
2023-04-18T06:20:17.931Z,6.63
2023-04-18T06:23:04.094Z,5.87
2023-04-18T06:25:51.776Z,4.77
2023-04-18T06:28:37.840Z,5.20
2023-04-18T06:31:24.658Z,6.10
2023-04-18T06:34:11.017Z,6.20
2023-04-18T06:37:04.094Z,5.70
2023-04-18T06:39:51.901Z,5.57
2023-04-18T06:42:41.420Z,5.37
2023-04-18T06:45:28.344Z,5.23
2023-04-18T06:48:15.009Z,5.43
2023-04-18T06:51:01.366Z,4.73
2023-04-18T06:53:48.460Z,5.10
2023-04-18T06:56:36.418Z,4.63
2023-04-18T06:59:24.461Z,4.90
2023-04-18T07:02:10.849Z,5.13
2023-04-18T07:04:57.507Z,6.30
2023-04-18T07:07:44.017Z,6.30
2023-04-18T07:10:30.582Z,4.20
2023-04-18T07:13:16.687Z,4.57
2023-04-18T07:16:04.639Z,4.80
2023-04-18T07:18:51.769Z,4.83
2023-04-18T07:21:40.549Z,4.20
2023-04-18T07:24:27.090Z,4.33
2023-04-18T07:27:13.659Z,4.67
2023-04-18T07:30:00.011Z,6.77
2023-04-18T07:32:48.771Z,8.07
2023-04-18T07:35:35.965Z,5.80
2023-04-18T07:38:22.329Z,4.40
2023-04-18T07:41:08.507Z,3.70
2023-04-18T07:43:55.212Z,4.30
2023-04-18T07:46:41.445Z,4.00
2023-04-18T07:49:29.634Z,4.80
2023-04-18T07:52:15.972Z,3.77
2023-04-18T07:55:02.706Z,3.83
2023-04-18T07:57:50.397Z,5.03
2023-04-18T08:00:37.311Z,4.50
2023-04-18T08:03:24.221Z,4.40
2023-04-18T08:06:12.461Z,4.47
2023-04-18T08:09:03.126Z,5.17
2023-04-18T08:11:49.867Z,4.20
2023-04-18T08:14:35.805Z,4.13
2023-04-18T08:17:22.078Z,4.50
2023-04-18T08:20:09.011Z,4.40
2023-04-18T08:23:06.773Z,4.33
2023-04-18T08:25:55.265Z,7.93
2023-04-18T08:28:42.240Z,5.77
2023-04-18T08:31:31.744Z,5.13
2023-04-18T08:34:18.615Z,3.97
2023-04-18T08:37:05.797Z,4.27
2023-04-18T08:39:53.848Z,3.87
2023-04-18T08:42:41.562Z,3.77
2023-04-18T08:45:28.814Z,4.70
2023-04-18T08:48:16.318Z,4.73
2023-04-18T08:51:03.102Z,3.80
2023-04-18T08:53:50.679Z,4.10
2023-04-18T08:56:38.875Z,3.77
2023-04-18T08:59:25.417Z,4.10
2023-04-18T09:02:12.539Z,4.03
2023-04-18T09:04:59.721Z,4.90
2023-04-18T09:07:46.647Z,4.10
2023-04-18T09:10:38.417Z,4.50
2023-04-18T09:13:39.686Z,4.40
2023-04-18T09:16:28.214Z,4.70
2023-04-18T09:19:19.088Z,4.87
2023-04-18T09:22:06.219Z,4.63
2023-04-18T09:24:55.531Z,4.40
2023-04-18T09:27:42.283Z,4.17
2023-04-18T09:30:39.726Z,3.80
2023-04-18T09:33:29.299Z,4.03
2023-04-18T09:36:20.212Z,3.80
2023-04-18T09:39:07.059Z,3.97
2023-04-18T09:41:59.034Z,4.90
2023-04-18T09:44:59.528Z,7.73
2023-04-18T09:47:46.109Z,3.77
2023-04-18T09:50:34.637Z,4.10
2023-04-18T09:53:21.435Z,3.60
2023-04-18T09:56:08.852Z,3.37
2023-04-18T09:58:57.421Z,3.50
2023-04-18T10:01:47.462Z,3.03
2023-04-18T10:04:34.542Z,3.47
2023-04-18T10:07:22.158Z,3.50
2023-04-18T10:10:08.864Z,3.57
2023-04-18T10:12:56.514Z,3.10
2023-04-18T10:15:44.475Z,3.97
2023-04-18T10:18:31.370Z,4.10
2023-04-18T10:21:18.105Z,3.30
2023-04-18T10:24:07.489Z,3.63
2023-04-18T10:26:54.581Z,3.73
2023-04-18T10:29:51.141Z,3.40
2023-04-18T10:32:37.477Z,3.90
2023-04-18T10:35:23.945Z,4.00
2023-04-18T10:38:17.365Z,3.23
2023-04-18T10:41:18.802Z,3.67
2023-04-18T10:44:13.241Z,3.60
2023-04-18T10:47:27.041Z,3.57
2023-04-18T10:50:14.122Z,3.47
2023-04-18T10:53:00.918Z,3.53
2023-04-18T10:55:49.855Z,4.60
2023-04-18T10:58:37.936Z,4.47
2023-04-18T11:01:31.045Z,4.23
2023-04-18T11:04:19.026Z,4.47
2023-04-18T11:07:06.199Z,3.77
2023-04-18T11:09:53.198Z,4.63
2023-04-18T11:12:40.045Z,3.93
2023-04-18T11:15:29.696Z,3.33
2023-04-18T11:18:17.367Z,4.10
2023-04-18T11:21:04.028Z,4.03
2023-04-18T11:23:50.457Z,6.40
2023-04-18T11:26:39.287Z,4.43
2023-04-18T11:29:25.537Z,3.97
2023-04-18T11:32:13.309Z,3.53
2023-04-18T11:34:59.692Z,3.23
2023-04-18T11:37:46.542Z,3.67
2023-04-18T11:40:34.978Z,4.10
2023-04-18T11:43:22.134Z,4.23
2023-04-18T11:46:08.708Z,3.90
2023-04-18T11:48:56.368Z,4.17
2023-04-18T11:51:46.301Z,3.90
2023-04-18T11:54:42.870Z,4.07
2023-04-18T11:57:29.745Z,4.10
2023-04-18T12:00:16.703Z,4.50
2023-04-18T12:03:04.520Z,4.37
2023-04-18T12:05:59.328Z,4.63
2023-04-18T12:08:46.323Z,4.37
2023-04-18T12:11:32.420Z,5.07
2023-04-18T12:14:22.624Z,5.80
2023-04-18T12:17:09.166Z,5.23
2023-04-18T12:19:55.816Z,5.17
2023-04-18T12:22:45.056Z,5.40
2023-04-18T12:25:31.803Z,5.20
2023-04-18T12:28:19.964Z,4.20
2023-04-18T12:31:07.384Z,5.33
2023-04-18T12:33:54.498Z,5.10
2023-04-18T12:36:41.034Z,4.47
2023-04-18T12:39:28.817Z,4.67
2023-04-18T12:42:15.124Z,5.13
2023-04-18T12:45:03.435Z,6.30
2023-04-18T12:47:50.927Z,5.50
2023-04-18T12:50:37.414Z,5.30
2023-04-18T12:53:24.002Z,5.97
2023-04-18T12:56:12.358Z,5.60
2023-04-18T12:58:58.599Z,6.17
2023-04-18T13:01:45.041Z,5.23
2023-04-18T13:04:31.714Z,5.70
2023-04-18T13:07:18.549Z,5.40
2023-04-18T13:10:05.532Z,5.60
2023-04-18T13:12:53.692Z,6.30
2023-04-18T13:15:40.101Z,5.97
2023-04-18T13:18:26.211Z,6.97
2023-04-18T13:21:12.800Z,4.93
2023-04-18T13:23:58.873Z,5.13
2023-04-18T13:26:45.426Z,5.30
2023-04-18T13:29:33.460Z,10.40
2023-04-18T13:32:19.904Z,4.90
2023-04-18T13:35:08.368Z,5.07
2023-04-18T13:37:54.869Z,5.03
2023-04-18T13:40:41.596Z,5.07
2023-04-18T13:43:27.686Z,4.30
2023-04-18T13:46:15.811Z,4.13
2023-04-18T13:49:02.327Z,4.07
2023-04-18T13:51:49.828Z,3.50
2023-04-18T13:54:37.314Z,4.60
2023-04-18T13:57:24.214Z,6.87
2023-04-18T14:00:13.753Z,4.07
2023-04-18T14:03:01.721Z,5.93
2023-04-18T14:05:48.295Z,8.83
2023-04-18T14:08:35.027Z,6.80
2023-04-18T14:11:21.478Z,19.97
2023-04-18T14:14:08.173Z,16.30
2023-04-18T14:16:54.712Z,7.87
2023-04-18T14:19:42.830Z,5.20
2023-04-18T14:22:29.207Z,5.40
2023-04-18T14:25:17.073Z,4.70
2023-04-18T14:28:07.937Z,5.90
2023-04-18T14:30:57.644Z,5.40
2023-04-18T14:33:44.848Z,4.90
2023-04-18T14:36:32.968Z,5.53
2023-04-18T14:39:19.356Z,6.20
2023-04-18T14:42:05.856Z,5.97
2023-04-18T14:44:52.076Z,6.40
2023-04-18T14:47:39.253Z,7.90
2023-04-18T14:50:25.817Z,7.50
2023-04-18T14:53:13.898Z,7.57
2023-04-18T14:56:00.685Z,8.23
2023-04-18T14:58:47.013Z,8.53
2023-04-18T15:01:33.655Z,7.70
2023-04-18T15:04:21.315Z,7.43
2023-04-18T15:07:08.350Z,7.63
2023-04-18T15:09:56.127Z,8.50
2023-04-18T15:12:42.805Z,7.47
2023-04-18T15:15:30.670Z,7.30
2023-04-18T15:18:16.899Z,6.47
2023-04-18T15:21:03.459Z,6.53
2023-04-18T15:23:50.019Z,6.17
2023-04-18T15:26:38.081Z,6.80
2023-04-18T15:29:24.718Z,6.00
2023-04-18T15:32:11.575Z,6.33
2023-04-18T15:34:57.843Z,5.00
2023-04-18T15:37:44.286Z,5.70
2023-04-18T15:40:31.339Z,5.00
2023-04-18T15:43:19.420Z,5.17
2023-04-18T15:46:06.303Z,5.20
2023-04-18T15:48:52.866Z,5.10
2023-04-18T15:51:39.375Z,5.73
2023-04-18T15:54:25.380Z,4.60
2023-04-18T15:57:12.120Z,5.50
2023-04-18T15:59:59.843Z,5.00
2023-04-18T16:02:46.617Z,6.07
2023-04-18T16:05:32.963Z,5.30
2023-04-18T16:08:19.733Z,4.73
2023-04-18T16:11:06.312Z,5.47
2023-04-18T16:13:53.157Z,5.57
2023-04-18T16:16:40.736Z,6.17
2023-04-18T16:19:27.303Z,5.53
2023-04-18T16:22:15.095Z,5.73
2023-04-18T16:25:01.906Z,5.83
2023-04-18T16:27:48.093Z,5.40
2023-04-18T16:30:34.557Z,5.73
2023-04-18T16:33:25.855Z,5.77
2023-04-18T16:36:12.785Z,7.57
2023-04-18T16:38:59.058Z,6.37
2023-04-18T16:41:45.551Z,6.50
2023-04-18T16:44:32.707Z,6.73
2023-04-18T16:47:19.309Z,6.23
2023-04-18T16:50:08.169Z,8.07
2023-04-18T16:52:54.955Z,10.50
2023-04-18T16:55:42.002Z,7.67
2023-04-18T16:58:28.290Z,13.57
2023-04-18T17:01:14.861Z,9.57
2023-04-18T17:04:01.316Z,8.77
2023-04-18T17:06:50.959Z,7.60
2023-04-18T17:09:38.421Z,6.27
2023-04-18T17:12:24.934Z,8.50
2023-04-18T17:15:11.672Z,7.57
2023-04-18T17:18:00.398Z,7.00
2023-04-18T17:20:47.141Z,6.90
2023-04-18T17:23:35.031Z,6.37
2023-04-18T17:26:21.552Z,6.47
2023-04-18T17:29:08.762Z,7.33
2023-04-18T17:31:55.358Z,6.73
2023-04-18T17:34:41.642Z,7.53
2023-04-18T17:37:28.059Z,6.07
2023-04-18T17:40:16.047Z,5.30
2023-04-18T17:43:02.251Z,6.27
2023-04-18T17:45:48.766Z,5.57
2023-04-18T17:48:35.271Z,5.93
2023-04-18T17:51:21.658Z,5.90
2023-04-18T17:54:08.227Z,6.03
2023-04-18T17:56:56.793Z,6.53
2023-04-18T17:59:43.091Z,6.70
2023-04-18T18:02:29.812Z,6.07
2023-04-18T18:05:16.701Z,6.97
2023-04-18T18:08:03.246Z,6.27
2023-04-18T18:10:50.233Z,6.50
2023-04-18T18:13:38.951Z,6.30
2023-04-18T18:16:25.422Z,6.47
2023-04-18T18:19:12.068Z,7.27
2023-04-18T18:21:58.745Z,6.53
2023-04-18T18:24:45.201Z,7.97
2023-04-18T18:27:31.818Z,7.83
2023-04-18T18:30:20.496Z,6.83
2023-04-18T18:33:07.026Z,6.63
2023-04-18T18:35:53.682Z,7.10
2023-04-18T18:38:40.228Z,7.03
2023-04-18T18:41:26.549Z,8.03
2023-04-18T18:44:13.093Z,7.07
2023-04-18T18:47:01.510Z,7.63
2023-04-18T18:49:48.793Z,7.33
2023-04-18T18:52:35.117Z,8.60
2023-04-18T18:55:21.447Z,8.47
2023-04-18T18:58:08.370Z,10.53
2023-04-18T19:00:54.612Z,8.17
2023-04-18T19:03:42.647Z,8.40
2023-04-18T19:06:29.415Z,9.77
2023-04-18T19:09:16.140Z,9.37
2023-04-18T19:12:02.563Z,10.03
2023-04-18T19:14:50.374Z,8.90
2023-04-18T19:17:36.805Z,8.87
2023-04-18T19:20:24.706Z,8.23
2023-04-18T19:23:11.082Z,8.17
2023-04-18T19:25:57.909Z,7.47
2023-04-18T19:28:44.354Z,6.33
2023-04-18T19:31:30.949Z,7.73
2023-04-18T19:34:18.961Z,7.97
2023-04-18T19:37:06.656Z,7.37
2023-04-18T19:39:53.140Z,8.20
2023-04-18T19:42:39.629Z,7.83
2023-04-18T19:45:26.043Z,8.13
2023-04-18T19:48:12.566Z,8.23
2023-04-18T19:50:58.852Z,10.40
2023-04-18T19:53:46.622Z,8.77
2023-04-18T19:56:33.058Z,9.60
2023-04-18T19:59:19.544Z,8.47
2023-04-18T20:02:06.528Z,7.90
2023-04-18T20:04:53.362Z,8.27
2023-04-18T20:07:39.908Z,8.10
2023-04-18T20:10:27.786Z,7.80
2023-04-18T20:13:14.105Z,6.73
2023-04-18T20:16:01.112Z,7.47
2023-04-18T20:18:49.320Z,7.50
2023-04-18T20:21:35.800Z,6.87
2023-04-18T20:24:22.349Z,7.13
2023-04-18T20:27:10.029Z,7.13
2023-04-18T20:29:57.328Z,6.53
2023-04-18T20:32:44.318Z,6.27
2023-04-18T20:35:31.583Z,7.17
2023-04-18T20:38:20.172Z,7.30
2023-04-18T20:41:10.717Z,7.10
2023-04-18T20:44:00.103Z,7.37
2023-04-18T20:46:46.701Z,7.63
2023-04-18T20:49:34.087Z,7.47
2023-04-18T20:52:20.250Z,6.03
2023-04-18T20:55:06.809Z,5.83
2023-04-18T20:57:53.494Z,5.67
2023-04-18T21:00:42.463Z,6.07
2023-04-18T21:03:29.245Z,5.70
2023-04-18T21:06:15.495Z,5.60
2023-04-18T21:09:01.845Z,7.10
2023-04-18T21:11:48.374Z,9.00
2023-04-18T21:14:34.863Z,8.00
2023-04-18T21:17:22.541Z,7.37
2023-04-18T21:20:09.705Z,7.37
2023-04-18T21:22:56.329Z,7.10
2023-04-18T21:25:42.773Z,5.80
2023-04-18T21:28:29.210Z,8.50
2023-04-18T21:31:15.789Z,7.23
2023-04-18T21:34:04.447Z,7.83
2023-04-18T21:36:50.666Z,6.93
2023-04-18T21:39:38.191Z,7.30
2023-04-18T21:42:25.008Z,6.40
2023-04-18T21:45:12.085Z,6.83
2023-04-18T21:47:58.792Z,7.00
2023-04-18T21:50:46.453Z,6.90
2023-04-18T21:53:32.777Z,6.43
2023-04-18T21:56:20.251Z,6.13
2023-04-18T21:59:06.819Z,5.90
2023-04-18T22:04:57.071Z,6.63
2023-04-18T22:07:54.975Z,7.90
2023-04-18T22:10:44.863Z,7.50
2023-04-18T22:13:33.036Z,7.23
2023-04-18T22:16:21.909Z,7.23
2023-04-18T22:19:09.132Z,7.17
2023-04-18T22:21:55.453Z,6.33
2023-04-18T22:24:44.944Z,8.07
2023-04-18T22:27:32.380Z,9.07
2023-04-18T22:30:18.601Z,8.20
2023-04-18T22:33:05.264Z,9.47
2023-04-18T22:35:51.952Z,7.07
2023-04-18T22:38:38.246Z,7.67
2023-04-18T22:41:26.066Z,7.90
2023-04-18T22:44:12.638Z,8.17
2023-04-18T22:46:59.066Z,7.93
2023-04-18T22:49:46.002Z,7.40
2023-04-18T22:52:32.581Z,7.63
2023-04-18T22:55:19.995Z,6.67
2023-04-18T22:58:07.846Z,8.80
2023-04-18T23:00:54.416Z,8.50
2023-04-18T23:03:40.868Z,8.47
2023-04-18T23:06:28.360Z,7.90
2023-04-18T23:09:16.615Z,7.30
2023-04-18T23:12:03.539Z,7.70
2023-04-18T23:14:51.433Z,7.33
2023-04-18T23:17:37.841Z,7.03
2023-04-18T23:20:25.035Z,6.40
2023-04-18T23:23:11.826Z,7.07
2023-04-18T23:25:58.031Z,6.47
2023-04-18T23:28:44.777Z,5.27
2023-04-18T23:31:33.906Z,6.20
2023-04-18T23:34:20.154Z,5.87
2023-04-18T23:37:06.439Z,5.80
2023-04-18T23:39:53.295Z,6.17
2023-04-18T23:42:39.661Z,6.73
2023-04-18T23:45:26.200Z,5.93
2023-04-18T23:48:14.164Z,6.27
2023-04-18T23:51:00.552Z,5.73
2023-04-18T23:53:46.756Z,6.67
2023-04-18T23:56:33.478Z,6.67
2023-04-18T23:59:19.916Z,6.53
